• Join FlightAware (Why Join?)
  • Login
  • US Flag 
04:23AM EDT


 

Airport Tracker/Info


-or-


 

Live Flight TrackerFlight Track Log ✈ UAL481 ✈ 05-Aug-2013 ✈ KALB - KORD

Flight Track Log - Related Links

Times and Time Zones

All times are in EDT time to prevent confusion due to time zone crossing. See the UAL481 flight status page for this flight to view local times or setup timezone preferences in your user account.

Time Position Orientation Groundspeed Altitude Reporting Facility
EDT Latitude Longitude Course Direction KTS MPH feet Rate Location/Type
06:13PM 42.7653 -73.8061 324° Northwest 179 206 1,200  Level Boston Center
06:13PM 42.7922 -73.8067 359° North 167 192 2,400 2,040 Climbing Boston Center
06:14PM 42.8442 -73.8306 341° North 242 278 4,200 2,760 Climbing Boston Center
06:15PM 42.8035 -74.1692 284° West  Level FlightAware Approximate
06:15PM 42.8956 -73.8769 327° Northwest 264 304 7,500  Level Boston Center
06:16PM 42.8262 -74.2941 284° West  Level FlightAware Approximate
06:16PM 42.9658 -73.9411 326° Northwest 264 304 10,500  Level Boston Center
06:17PM 42.8477 -74.4195 283° West  Level FlightAware Approximate
06:17PM 43.0358 -73.9994 329° Northwest 304 350 11,900  Level Boston Center
06:18PM 42.8738 -74.5405 324° Northwest  Level FlightAware Approximate
06:18PM 43.1283 -74.0844 326° Northwest 354 407 14,700  Level Boston Center
06:19PM 43.1472 -74.2103 282° West 341 392 16,700 2,160 Climbing Boston Center
06:20PM 43.1531 -74.3697 273° West 370 426 19,000 1,980 Climbing Boston Center
06:21PM 43.1544 -74.5236 271° West 393 452 20,800 1,620 Climbing Boston Center
06:22PM 43.1558 -74.6828 271° West 407 468 22,600 1,620 Climbing Boston Center
06:23PM 43.1581 -74.8736 271° West 420 483 24,500 1,620 Climbing Boston Center
06:24PM 43.1586 -75.0331 270° West 420 483 25,900 1,260 Climbing Boston Center
06:25PM 43.1589 -75.1983 270° West 425 489 27,000 960 Climbing Boston Center
06:26PM 43.1608 -75.3719 271° West 437 503 27,900 720 Climbing Boston Center
06:27PM 43.1611 -75.5231 270° West 442 509 28,500 900 Climbing Boston Center
06:28PM 43.1625 -75.6939 271° West 442 509 29,800 660 Climbing Boston Center
06:29PM 43.1619 -75.8589 270° West 442 509 29,900  Climbing Boston Center
06:30PM 43.1631 -76.0269 271° West 442 509 29,900  Level Boston Center
06:31PM 43.1617 -76.1978 269° West 442 509 29,900  Level Boston Center
06:33PM 43.1600 -76.4047 269° West 442 509 29,900  Level Cleveland Center
06:34PM 43.1619 -76.5725 271° West 442 509 30,000  Climbing Cleveland Center
06:35PM 43.1592 -76.7408 269° West 442 509 30,000  Level Cleveland Center
06:36PM 43.1586 -76.9117 270° West 442 509 30,000  Level Cleveland Center
06:37PM 43.1575 -77.0825 270° West 447 514 30,000  Level Cleveland Center
06:38PM 43.1564 -77.2506 270° West 447 514 30,000  Level Cleveland Center
06:39PM 43.1547 -77.4214 269° West 447 514 30,000  Level Cleveland Center
06:40PM 43.1531 -77.5894 269° West 447 514 30,000  Level Cleveland Center
06:41PM 43.1511 -77.7603 269° West 447 514 30,000  Level Cleveland Center
06:42PM 43.1511 -77.9425 270° West 447 514 30,000  Level Cleveland Center
06:43PM 43.1464 -78.1019 268° West 436 502 30,000  Level Cleveland Center
06:44PM 43.1433 -78.2558 268° West 426 490 30,000  Level Cleveland Center
06:45PM 43.1422 -78.4181 270° West 420 483 30,000  Level Cleveland Center
06:46PM 43.1369 -78.5775 267° West 425 489 30,000  Level Cleveland Center
06:47PM 43.1333 -78.7342 268° West 425 489 30,000  Level Cleveland Center
06:48PM 43.1294 -78.8906 268° West 420 483 30,000  Level Cleveland Center
06:49PM 43.1167 -79.1000 265° West 420 483 30,000  Level Toronto Center
06:50PM 43.1000 -79.2667 262° West 420 483 30,000  Level Toronto Center
06:51PM 43.1000 -79.4333 270° West 430 495 30,000  Level Toronto Center
06:52PM 43.1000 -79.5833 270° West 430 495 30,000  Level Toronto Center
06:53PM 43.0833 -79.7500 262° West 430 495 30,000  Level Toronto Center
06:54PM 43.0833 -79.9000 270° West 420 483 30,000  Level Toronto Center
06:55PM 43.0833 -80.0667 270° West 420 483 30,000  Level Toronto Center
06:56PM 43.0667 -80.2333 262° West 420 483 30,000  Level Toronto Center
06:57PM 43.0667 -80.3833 270° West 420 483 30,000  Level Toronto Center
06:58PM 43.0667 -80.5500 270° West 420 483 30,000  Level Toronto Center
06:59PM 43.0500 -80.7000 261° West 410 472 30,000  Level Toronto Center
07:00PM 43.0333 -80.8667 262° West 410 472 30,000  Level Toronto Center
07:01PM 43.0167 -81.0000 260° West 410 472 30,000  Level Toronto Center
07:02PM 43.0167 -81.1833 270° West 420 483 30,000  Level Toronto Center
07:03PM 43.0167 -81.3167 270° West 420 483 30,000  Level Toronto Center
07:04PM 43.0167 -81.4833 270° West 410 472 30,000  Level Toronto Center
07:05PM 43.0167 -81.6333 270° West 410 472 30,000  Level Toronto Center
07:06PM 43.0167 -81.8000 270° West 410 472 30,000  Level Toronto Center
07:07PM 43.0000 -81.9667 262° West 400 460 30,000  Level Toronto Center
07:08PM 43.0000 -82.1000 270° West 410 472 30,000  Level Toronto Center
07:10PM 43.0086 -82.4003 272° West 401 461 30,000  Level Cleveland Center
07:11PM 43.0061 -82.5536 269° West 401 461 30,000  Level Cleveland Center
07:12PM 43.0014 -82.7067 268° West 401 461 30,000  Level Cleveland Center
07:13PM 42.9964 -82.8542 267° West 401 461 30,000  Level Cleveland Center
07:14PM 42.9914 -82.9986 267° West 401 461 30,000 840 Level Cleveland Center
07:15PM 42.9883 -83.1433 268° West 401 461 31,700 960 Climbing Cleveland Center
07:16PM 42.9831 -83.2794 267° West 379 436 32,000 120 Climbing Cleveland Center
07:17PM 42.9986 -83.4164 279° West 368 423 32,000  Level Cleveland Center
07:18PM 43.0181 -83.5478 281° West 368 423 32,000  Level Cleveland Center
07:19PM 43.0353 -83.6850 280° West 368 423 32,000  Level Cleveland Center
07:20PM 43.0606 -83.8342 283° West 368 423 32,000  Level Cleveland Center
07:21PM 43.0817 -83.9631 283° West 363 418 32,000  Level Cleveland Center
07:22PM 43.0717 -84.0961 264° West 351 404 32,000  Level Cleveland Center
07:23PM 43.0464 -84.2339 256° West 357 411 32,000  Level Cleveland Center
07:24PM 43.0197 -84.3547 253° West 363 418 32,000  Level Cleveland Center
07:25PM 42.9944 -84.4894 256° West 369 425 32,000  Level Cleveland Center
07:26PM 42.9633 -84.6492 255° West 369 425 32,000  Level Chicago Center
07:27PM 42.9353 -84.7836 254° West 369 425 32,000  Level Chicago Center
07:28PM 42.9028 -84.9436 255° West 366 421 32,000  Level Chicago Center
07:29PM 42.8750 -85.0750 254° West 362 417 32,000 -540 Level Chicago Center
07:30PM 42.8472 -85.2081 254° West 364 419 31,000 -960 Descending Chicago Center
07:31PM 42.8194 -85.3431 254° West 368 423 30,100 -540 Descending Chicago Center
07:32PM 42.7894 -85.4822 254° West 379 436 30,000 -60 Descending Chicago Center
07:33PM 42.7642 -85.6211 256° West 379 436 30,000 -420 Level Chicago Center
07:34PM 42.7403 -85.7561 256° West 370 426 29,200 -1,320 Descending Chicago Center
07:35PM 42.7133 -85.8994 256° West 329 379 27,300 -2,040 Descending Chicago Center
07:37PM 42.6914 -86.0214 256° West 328 377 25,000 -1,860 Descending Chicago Center
07:38PM 42.6692 -86.1428 256° West 330 380 23,500 -1,560 Descending Chicago Center
07:39PM 42.6478 -86.2600 256° West 323 372 21,800 -1,740 Descending Chicago Center
07:40PM 42.6258 -86.3731 255° West 311 358 20,000 -1,680 Descending Chicago Center
07:41PM 42.6050 -86.4842 256° West 307 353 18,400 -1,500 Descending Chicago Center
07:42PM 42.5842 -86.5947 256° West 304 350 16,900 -1,680 Descending Chicago Center
07:43PM 42.5614 -86.7247 257° West 297 342 15,000 -1,800 Descending Chicago Center
07:44PM 42.5342 -86.8289 251° West 295 339 13,300 -1,800 Descending Chicago Center
07:45PM 42.5072 -86.9267 250° West 283 326 11,400 -1,800 Descending Chicago Center
07:46PM 42.4792 -87.0217 248° West 276 318 9,600 -1,200 Descending Chicago Center
07:47PM 42.4522 -87.1167 249° West 272 313 9,000 -660 Descending Chicago Center
07:48PM 42.4211 -87.2081 245° Southwest 269 310 8,300 -960 Descending Chicago Center
07:49PM 42.3697 -87.3083 235° Southwest 272 313 7,000 -660 Descending Chicago Center
07:50PM 42.3303 -87.3911 237° Southwest 266 306 7,000  Level Chicago Center
07:51PM 42.2903 -87.4744 237° Southwest 263 303 7,000 -480 Level Chicago Center
07:52PM 42.2503 -87.5578 237° Southwest 267 307 6,100 -900 Descending Chicago Center
07:53PM 42.2133 -87.6375 238° Southwest 258 297 5,200 -780 Descending Chicago Center
07:54PM 42.1678 -87.7097 230° Southwest 223 257 4,600 -780 Descending Chicago Center
07:55PM 42.1247 -87.7561 219° Southwest 206 237 3,700 -780 Descending Chicago Center
07:56PM 42.0897 -87.7964 221° Southwest 187 215 3,000 -780 Descending Chicago Center
07:57PM 42.0553 -87.8339 219° Southwest 170 196 2,100 -780 Descending Chicago Center
07:58PM 42.0256 -87.8667 219° Southwest 156 180 1,400 -720 Descending Chicago Center
08:00PM 41.9817 -87.9067 217° Southwest  Level Estimated
08:07PM 41.9817 -87.9067 217° Southwest  Level Estimated